Time;durP1;ratioP1;P1;durP2;ratioP2;P2;SDS_P1;SDS_P2;PMS_P1;PMS_P2;Temp;Humidity;BMP_temperature;BMP_pressure;BME280_temperature;BME280_humidity;BME280_pressure;Samples;Min_cycle;Max_cycle;Signal;HPM_P1;HPM_P2
2022/03/02 00:01:10;;;;;;;27.33;21.80;;;7.50;99.90;;;;;;5115091;28;20182;-58
2022/03/02 00:03:36;;;;;;;26.02;21.38;;;7.50;99.90;;;;;;5114890;28;20673;-58
2022/03/02 00:06:02;;;;;;;25.35;20.40;;;7.50;99.90;;;;;;5114793;28;20169;-58
2022/03/02 00:08:28;;;;;;;25.42;21.92;;;7.50;99.90;;;;;;5114811;28;20168;-58
2022/03/02 00:10:54;;;;;;;25.67;22.23;;;7.50;99.90;;;;;;5114706;28;20645;-58
2022/03/02 00:13:20;;;;;;;27.15;21.33;;;7.50;99.90;;;;;;5114708;28;20203;-58
2022/03/02 00:15:45;;;;;;;23.95;20.92;;;7.40;99.90;;;;;;5114866;28;20660;-58
2022/03/02 00:18:11;;;;;;;27.92;21.20;;;7.40;99.90;;;;;;5114609;28;20176;-58
2022/03/02 00:20:37;;;;;;;25.80;20.48;;;7.30;99.90;;;;;;5114618;28;20196;-58
2022/03/02 00:23:03;;;;;;;26.48;20.52;;;7.40;99.90;;;;;;5114436;28;20208;-58
2022/03/02 00:25:28;;;;;;;27.02;21.70;;;7.30;99.90;;;;;;5114380;28;20642;-57
2022/03/02 00:27:54;;;;;;;25.65;20.75;;;7.30;99.90;;;;;;5114589;28;20205;-58
2022/03/02 00:30:22;;;;;;;25.23;20.63;;;7.30;99.90;;;;;;5114600;28;20227;-59
2022/03/02 00:32:47;;;;;;;26.50;20.95;;;7.30;99.90;;;;;;5114483;28;20264;-58
2022/03/02 00:35:13;;;;;;;26.73;21.50;;;7.30;99.90;;;;;;5114395;28;20268;-59
2022/03/02 00:37:39;;;;;;;22.63;20.13;;;7.30;99.90;;;;;;5114491;28;20166;-57
2022/03/02 00:40:05;;;;;;;25.25;20.88;;;7.30;99.90;;;;;;5114160;28;20218;-58
2022/03/02 00:42:31;;;;;;;23.15;20.65;;;7.30;99.90;;;;;;5112953;28;20735;-58
2022/03/02 00:44:57;;;;;;;24.42;20.98;;;7.30;99.90;;;;;;5114257;28;20174;-57
2022/03/02 00:47:24;;;;;;;25.08;21.95;;;7.30;99.90;;;;;;5114189;28;20173;-58
2022/03/02 00:49:50;;;;;;;25.80;21.45;;;7.30;99.90;;;;;;5113965;28;20181;-58
2022/03/02 00:52:16;;;;;;;29.02;22.25;;;7.30;99.90;;;;;;5113958;28;20173;-57
2022/03/02 00:54:41;;;;;;;23.83;20.38;;;7.20;99.90;;;;;;5113767;28;20653;-57
2022/03/02 00:57:07;;;;;;;24.10;21.42;;;7.10;99.90;;;;;;5114088;28;20194;-58
2022/03/02 00:59:33;;;;;;;24.08;20.10;;;7.10;99.90;;;;;;5113904;28;20169;-57
2022/03/02 01:01:59;;;;;;;25.13;21.27;;;7.10;99.90;;;;;;5112701;28;20475;-58
2022/03/02 01:04:24;;;;;;;24.20;20.50;;;7.10;99.90;;;;;;5114072;28;20154;-58
2022/03/02 01:06:50;;;;;;;22.83;19.73;;;7.10;99.90;;;;;;5114236;28;20219;-57
2022/03/02 01:09:16;;;;;;;26.00;21.23;;;7.00;99.90;;;;;;5114162;28;20173;-57
2022/03/02 01:11:42;;;;;;;23.95;20.63;;;7.00;99.90;;;;;;5114386;28;20173;-58
2022/03/02 01:14:07;;;;;;;25.42;21.42;;;6.90;99.90;;;;;;5114279;28;20574;-57
2022/03/02 01:16:33;;;;;;;23.52;20.67;;;7.00;99.90;;;;;;5114094;28;20229;-57
2022/03/02 01:18:59;;;;;;;26.02;21.83;;;6.90;99.90;;;;;;5112761;28;20185;-58
2022/03/02 01:21:25;;;;;;;25.08;20.85;;;6.90;99.90;;;;;;5114190;28;20652;-58
2022/03/02 01:23:53;;;;;;;27.67;21.20;;;6.90;99.90;;;;;;5113852;28;20208;-58
2022/03/02 01:26:24;;;;;;;24.52;20.83;;;6.90;99.90;;;;;;5114132;28;20197;-57
2022/03/02 01:28:51;;;;;;;27.85;22.10;;;6.90;99.90;;;;;;5114182;28;20205;-56
2022/03/02 01:31:18;;;;;;;26.15;21.65;;;6.90;99.90;;;;;;5114088;28;20260;-60
2022/03/02 01:33:43;;;;;;;26.48;20.67;;;6.90;99.90;;;;;;5113785;28;20177;-57
2022/03/02 01:36:09;;;;;;;24.80;21.20;;;6.90;99.90;;;;;;5113644;28;20306;-58
2022/03/02 01:38:35;;;;;;;25.90;21.63;;;6.90;99.90;;;;;;5113974;28;20534;-58
2022/03/02 01:41:00;;;;;;;25.88;21.25;;;6.90;99.90;;;;;;5113679;28;20196;-58
2022/03/02 01:43:27;;;;;;;28.05;21.20;;;6.90;99.90;;;;;;5113525;28;20218;-56
2022/03/02 01:45:53;;;;;;;26.05;21.52;;;6.80;99.90;;;;;;5113718;27;20253;-57
2022/03/02 01:48:19;;;;;;;25.90;21.23;;;6.90;99.90;;;;;;5114085;28;20180;-57
2022/03/02 01:50:45;;;;;;;25.60;20.92;;;6.80;99.90;;;;;;5112262;28;20183;-58
2022/03/02 01:53:10;;;;;;;26.48;19.85;;;6.80;99.90;;;;;;5113592;28;20208;-57
2022/03/02 01:55:36;;;;;;;23.58;19.90;;;6.70;99.90;;;;;;5113759;28;20173;-58
2022/03/02 01:58:02;;;;;;;26.33;20.58;;;6.70;99.90;;;;;;5113616;28;20386;-57
2022/03/02 02:00:29;;;;;;;27.60;20.90;;;6.70;99.90;;;;;;5113659;28;20172;-57
2022/03/02 02:02:55;;;;;;;25.92;20.58;;;6.80;99.90;;;;;;5116146;28;20294;-58
2022/03/02 02:05:22;;;;;;;27.02;20.88;;;6.70;99.90;;;;;;5117737;28;20172;-57
2022/03/02 02:07:47;;;;;;;26.10;21.42;;;6.70;99.90;;;;;;5117697;28;20252;-58
2022/03/02 02:10:13;;;;;;;25.90;20.35;;;6.80;99.90;;;;;;5117859;28;20269;-58
2022/03/02 02:12:39;;;;;;;26.13;20.52;;;6.80;99.90;;;;;;5117586;28;20580;-57
2022/03/02 02:15:06;;;;;;;29.95;22.05;;;6.80;99.90;;;;;;5117692;28;20198;-58
2022/03/02 02:17:32;;;;;;;27.15;20.90;;;6.80;99.90;;;;;;5117539;28;20225;-59
2022/03/02 02:19:57;;;;;;;22.38;18.90;;;6.80;99.90;;;;;;5117664;28;20193;-57
2022/03/02 02:22:23;;;;;;;25.50;21.17;;;6.80;99.90;;;;;;5117322;28;20212;-57
2022/03/02 02:24:49;;;;;;;24.33;20.20;;;6.90;99.90;;;;;;5117625;28;20207;-58
2022/03/02 02:27:15;;;;;;;27.95;21.02;;;6.80;99.90;;;;;;5117470;28;20203;-56
2022/03/02 02:29:42;;;;;;;26.88;20.67;;;6.70;99.90;;;;;;5117427;28;20244;-57
2022/03/02 02:32:09;;;;;;;27.30;20.17;;;6.80;99.90;;;;;;5117341;28;20617;-58
2022/03/02 02:34:34;;;;;;;23.17;19.10;;;6.90;99.90;;;;;;5117191;28;20252;-60
2022/03/02 02:37:01;;;;;;;23.60;19.67;;;6.80;99.90;;;;;;5117104;28;20226;-57
2022/03/02 02:39:28;;;;;;;23.60;18.80;;;6.90;99.90;;;;;;5117234;28;20188;-57
2022/03/02 02:41:53;;;;;;;22.40;18.73;;;6.90;99.90;;;;;;5117135;28;20169;-57
2022/03/02 02:44:19;;;;;;;24.98;19.73;;;6.90;99.90;;;;;;5117154;28;20222;-57
2022/03/02 02:46:45;;;;;;;22.92;19.50;;;6.80;99.90;;;;;;5116951;28;20268;-59
2022/03/02 02:49:11;;;;;;;26.15;19.70;;;6.80;99.90;;;;;;5116978;28;20181;-57
2022/03/02 02:51:37;;;;;;;22.05;18.33;;;6.80;99.90;;;;;;5117131;28;20259;-59
2022/03/02 02:54:03;;;;;;;23.80;19.67;;;6.70;99.90;;;;;;5116920;28;20658;-56
2022/03/02 02:56:29;;;;;;;21.23;18.17;;;6.70;99.90;;;;;;5116882;28;20183;-58
2022/03/02 02:58:55;;;;;;;22.15;18.17;;;6.80;99.90;;;;;;5115642;28;20265;-58
2022/03/02 03:01:21;;;;;;;24.15;18.88;;;6.80;99.90;;;;;;5116781;28;20181;-57
2022/03/02 03:03:47;;;;;;;23.92;18.02;;;6.60;99.90;;;;;;5116546;28;20200;-58
2022/03/02 03:06:13;;;;;;;24.10;18.45;;;6.70;99.90;;;;;;5116793;28;20181;-57
2022/03/02 03:08:39;;;;;;;26.02;18.15;;;6.70;99.90;;;;;;5116939;28;20265;-59
2022/03/02 03:11:05;;;;;;;21.75;17.73;;;6.70;99.90;;;;;;5116638;28;20173;-57
2022/03/02 03:13:31;;;;;;;22.83;17.73;;;6.70;99.90;;;;;;5116519;28;20271;-57
2022/03/02 03:15:57;;;;;;;21.58;17.58;;;6.70;99.90;;;;;;5116515;28;20626;-58
2022/03/02 03:18:23;;;;;;;21.60;18.08;;;6.60;99.90;;;;;;5116352;28;20174;-57
2022/03/02 03:20:48;;;;;;;22.15;17.90;;;6.60;99.90;;;;;;5116628;28;20223;-57
2022/03/02 03:23:14;;;;;;;22.15;16.95;;;6.60;99.90;;;;;;5116180;28;20730;-57
2022/03/02 03:25:40;;;;;;;22.65;17.95;;;6.60;99.90;;;;;;5116371;28;20634;-57
2022/03/02 03:28:05;;;;;;;19.63;17.52;;;6.60;99.90;;;;;;5115167;28;20173;-57
2022/03/02 03:30:31;;;;;;;20.20;17.30;;;6.70;99.90;;;;;;5116138;28;20174;-58
2022/03/02 03:32:58;;;;;;;21.58;17.60;;;6.70;99.90;;;;;;5115969;28;20584;-57
2022/03/02 03:35:26;;;;;;;23.17;16.77;;;6.70;99.90;;;;;;5116178;28;20645;-58
2022/03/02 03:37:53;;;;;;;21.40;17.23;;;6.60;99.90;;;;;;5116328;28;20169;-57
2022/03/02 03:40:21;;;;;;;20.75;17.15;;;6.60;99.90;;;;;;5116072;28;20173;-57
2022/03/02 03:42:47;;;;;;;22.17;17.25;;;6.60;99.90;;;;;;5115932;28;20193;-58
2022/03/02 03:45:14;;;;;;;21.73;16.80;;;6.50;99.90;;;;;;5114686;28;20256;-58
2022/03/02 03:47:40;;;;;;;21.38;17.58;;;6.60;99.90;;;;;;5115717;28;20169;-57
2022/03/02 03:50:07;;;;;;;22.35;17.63;;;6.60;99.90;;;;;;5116054;28;20177;-57
2022/03/02 03:52:33;;;;;;;20.85;17.23;;;6.50;99.90;;;;;;5115749;28;20180;-57
2022/03/02 03:54:59;;;;;;;19.92;17.55;;;6.50;99.90;;;;;;5114473;28;20610;-58
2022/03/02 03:57:25;;;;;;;23.38;18.30;;;6.40;99.90;;;;;;5115694;28;20176;-58
2022/03/02 03:59:50;;;;;;;21.75;17.83;;;6.40;99.90;;;;;;5115602;27;20173;-57
2022/03/02 04:02:16;;;;;;;22.13;16.75;;;6.40;99.90;;;;;;5115406;28;20214;-58
2022/03/02 04:04:42;;;;;;;19.98;17.88;;;6.40;99.90;;;;;;5115682;28;20656;-58
2022/03/02 04:07:07;;;;;;;23.33;17.05;;;6.30;99.90;;;;;;5115409;28;20177;-58
2022/03/02 04:09:33;;;;;;;21.33;16.73;;;6.40;99.90;;;;;;5114144;28;20233;-58
2022/03/02 04:11:58;;;;;;;22.17;17.10;;;6.40;99.90;;;;;;5115406;28;20580;-58
2022/03/02 04:14:24;;;;;;;21.10;17.02;;;6.30;99.90;;;;;;5114078;28;20179;-58
2022/03/02 04:16:50;;;;;;;22.90;17.38;;;6.30;99.90;;;;;;5113929;28;20221;-58
2022/03/02 04:19:15;;;;;;;21.30;16.55;;;6.30;99.90;;;;;;5115234;28;20193;-58
2022/03/02 04:21:41;;;;;;;20.75;17.15;;;6.30;99.90;;;;;;5114086;28;20184;-56
2022/03/02 04:24:07;;;;;;;21.60;16.88;;;6.20;99.90;;;;;;5113746;28;20205;-57
2022/03/02 04:26:32;;;;;;;22.48;17.23;;;6.20;99.90;;;;;;5114729;28;20175;-58
2022/03/02 04:28:58;;;;;;;19.75;16.60;;;6.20;99.90;;;;;;5115057;28;20176;-58
2022/03/02 04:31:24;;;;;;;22.25;16.38;;;6.20;99.90;;;;;;5114887;28;20188;-58
2022/03/02 04:33:49;;;;;;;21.42;16.90;;;6.30;99.90;;;;;;5115377;28;20530;-57
2022/03/02 04:36:15;;;;;;;22.20;17.30;;;6.40;99.90;;;;;;5114991;28;20169;-57
2022/03/02 04:38:41;;;;;;;19.30;16.42;;;6.20;99.90;;;;;;5114773;28;20219;-57
2022/03/02 04:41:07;;;;;;;19.55;17.05;;;6.20;99.90;;;;;;5115086;28;20169;-57
2022/03/02 04:43:32;;;;;;;21.67;17.17;;;6.20;99.90;;;;;;5114645;28;20600;-62
2022/03/02 04:45:58;;;;;;;22.55;16.85;;;6.20;99.90;;;;;;5114589;28;20180;-60
2022/03/02 04:48:24;;;;;;;18.60;15.95;;;6.10;99.90;;;;;;5113539;28;20213;-59
2022/03/02 04:50:50;;;;;;;22.88;17.45;;;6.00;99.90;;;;;;5114832;28;20661;-59
2022/03/02 04:53:16;;;;;;;21.45;17.88;;;5.90;99.90;;;;;;5113702;28;20226;-58
2022/03/02 04:55:44;;;;;;;24.60;17.10;;;6.00;99.90;;;;;;5114552;28;20173;-58
2022/03/02 04:58:10;;;;;;;22.27;17.75;;;6.00;99.90;;;;;;5114434;28;20176;-59
2022/03/02 05:00:36;;;;;;;21.20;16.35;;;6.00;99.90;;;;;;5114349;28;20251;-59
2022/03/02 05:03:06;;;;;;;23.48;17.17;;;6.00;99.90;;;;;;5114407;28;20345;-57
2022/03/02 05:05:34;;;;;;;23.05;17.85;;;5.90;99.90;;;;;;5113139;28;20599;-59
2022/03/02 05:08:00;;;;;;;24.50;18.20;;;5.90;99.90;;;;;;5113078;28;20208;-59
2022/03/02 05:10:26;;;;;;;22.17;17.08;;;5.90;99.90;;;;;;5114325;28;20697;-58
2022/03/02 05:12:52;;;;;;;19.15;16.50;;;5.90;99.90;;;;;;5113013;28;20263;-59
2022/03/02 05:15:19;;;;;;;20.23;16.13;;;5.80;99.90;;;;;;5114037;28;20255;-59
2022/03/02 05:17:47;;;;;;;21.35;16.75;;;5.90;99.90;;;;;;5114303;28;20755;-59
2022/03/02 05:20:14;;;;;;;19.88;16.42;;;5.90;99.90;;;;;;5114129;28;20200;-60
2022/03/02 05:22:40;;;;;;;20.42;16.08;;;6.00;99.90;;;;;;5113894;28;20200;-59
2022/03/02 05:25:07;;;;;;;22.65;17.23;;;5.90;99.90;;;;;;5114031;28;20176;-59
2022/03/02 05:27:34;;;;;;;21.40;17.08;;;6.00;99.90;;;;;;5113850;28;20182;-59
2022/03/02 05:30:00;;;;;;;21.95;17.52;;;6.10;99.90;;;;;;5114099;28;20173;-59
2022/03/02 05:32:25;;;;;;;28.85;20.88;;;6.10;99.90;;;;;;5113978;28;20176;-60
2022/03/02 05:34:51;;;;;;;24.90;17.80;;;6.00;99.90;;;;;;5113885;28;20183;-59
2022/03/02 05:37:17;;;;;;;40.33;30.20;;;6.10;99.90;;;;;;5112958;28;20173;-59
2022/03/02 05:39:43;;;;;;;31.77;24.98;;;6.10;99.90;;;;;;5113789;28;20184;-59
2022/03/02 05:42:09;;;;;;;28.60;19.83;;;6.10;99.90;;;;;;5113668;28;20173;-59
2022/03/02 05:44:35;;;;;;;21.85;16.05;;;6.00;99.90;;;;;;5113911;28;20645;-59
2022/03/02 05:47:00;;;;;;;38.72;31.10;;;6.00;99.90;;;;;;5113843;28;20182;-59
2022/03/02 05:49:26;;;;;;;21.08;17.95;;;6.00;99.90;;;;;;5113963;28;20177;-57
2022/03/02 05:51:52;;;;;;;28.70;18.70;;;6.00;99.90;;;;;;5113645;28;20677;-59
2022/03/02 05:54:18;;;;;;;18.40;15.82;;;5.90;99.90;;;;;;5114024;28;20169;-59
2022/03/02 05:56:43;;;;;;;22.80;16.55;;;6.00;99.90;;;;;;5113417;28;20185;-59
2022/03/02 05:59:11;;;;;;;23.40;16.75;;;5.90;99.90;;;;;;5113657;28;20188;-60
2022/03/02 06:01:38;;;;;;;24.42;17.48;;;5.80;99.90;;;;;;5113721;28;20172;-58
2022/03/02 06:04:08;;;;;;;83.00;54.97;;;5.70;99.90;;;;;;5112166;28;20216;-59
2022/03/02 06:06:35;;;;;;;39.05;27.45;;;5.50;99.90;;;;;;5112879;28;20184;-59
2022/03/02 06:09:03;;;;;;;31.42;23.88;;;5.50;99.90;;;;;;5110612;28;20661;-60
2022/03/02 06:11:29;;;;;;;24.73;19.63;;;5.40;99.90;;;;;;5113381;28;20169;-58
2022/03/02 06:13:55;;;;;;;24.95;17.92;;;5.40;99.90;;;;;;5113656;28;20173;-58
2022/03/02 06:16:21;;;;;;;24.27;17.65;;;5.30;99.90;;;;;;5113566;28;20687;-58
2022/03/02 06:18:48;;;;;;;22.65;16.90;;;5.20;99.90;;;;;;5113283;28;20259;-58
2022/03/02 06:21:22;;;;;;;21.23;16.80;;;5.30;99.90;;;;;;5112240;28;20545;-58
2022/03/02 06:23:48;;;;;;;23.88;17.63;;;5.30;99.90;;;;;;5113239;28;20203;-58
2022/03/02 06:26:14;;;;;;;20.80;16.70;;;5.20;99.90;;;;;;5113437;28;20172;-58
2022/03/02 06:28:40;;;;;;;25.60;16.33;;;5.20;99.90;;;;;;5113456;28;20208;-58
2022/03/02 06:31:06;;;;;;;20.98;16.35;;;5.20;99.90;;;;;;5113391;28;20216;-58
2022/03/02 06:33:32;;;;;;;26.15;16.30;;;5.20;99.90;;;;;;5113781;28;20185;-58
2022/03/02 06:35:57;;;;;;;23.25;16.10;;;5.20;99.90;;;;;;5113220;28;20200;-58
2022/03/02 06:38:23;;;;;;;23.92;16.27;;;5.30;99.90;;;;;;5113066;28;20188;-58
2022/03/02 06:41:15;;;;;;;21.48;16.17;;;5.30;99.90;;;;;;5113382;28;20204;-58
2022/03/02 06:43:49;;;;;;;22.77;16.40;;;5.20;99.90;;;;;;5113247;28;20244;-58
2022/03/02 06:46:31;;;;;;;22.05;16.05;;;5.30;99.90;;;;;;5113217;28;20221;-57
2022/03/02 06:49:04;;;;;;;24.55;15.82;;;5.20;99.90;;;;;;5115371;28;20184;-58
2022/03/02 06:51:31;;;;;;;21.77;16.70;;;5.20;99.90;;;;;;5117085;28;20702;-59
2022/03/02 06:54:01;;;;;;;20.45;15.25;;;5.20;99.90;;;;;;5116975;28;20276;-58
2022/03/02 06:56:31;;;;;;;21.63;15.90;;;5.30;99.90;;;;;;5117140;28;20174;-61
2022/03/02 06:59:00;;;;;;;25.63;17.73;;;5.20;99.90;;;;;;5116873;28;20208;-58
2022/03/02 07:01:31;;;;;;;23.25;16.05;;;5.20;99.90;;;;;;5116635;28;20184;-58
2022/03/02 07:03:59;;;;;;;21.30;16.08;;;5.20;99.90;;;;;;5116902;28;20208;-59
2022/03/02 07:06:27;;;;;;;21.55;16.08;;;5.10;99.90;;;;;;5116703;28;20608;-58
2022/03/02 07:08:54;;;;;;;22.45;16.23;;;5.20;99.90;;;;;;5116522;28;20522;-58
2022/03/02 07:11:21;;;;;;;22.48;16.48;;;5.20;99.90;;;;;;5098420;28;20494;-59
2022/03/02 07:13:48;;;;;;;21.52;16.40;;;5.20;99.90;;;;;;5115121;28;20173;-58
2022/03/02 07:16:16;;;;;;;21.92;17.02;;;5.40;99.90;;;;;;5116505;28;20203;-59
2022/03/02 07:18:42;;;;;;;23.00;17.17;;;5.40;99.90;;;;;;5115984;28;20247;-58
2022/03/02 07:21:15;;;;;;;21.80;16.23;;;5.50;99.90;;;;;;5116849;28;20256;-58
2022/03/02 07:23:54;;;;;;;24.27;18.02;;;5.70;99.90;;;;;;5116359;28;20212;-58
2022/03/02 07:26:23;;;;;;;22.50;16.92;;;5.70;99.90;;;;;;5116217;28;20179;-58
2022/03/02 07:28:49;;;;;;;23.35;17.92;;;5.80;99.90;;;;;;5116429;28;20177;-58
2022/03/02 07:31:19;;;;;;;21.60;18.00;;;5.80;99.90;;;;;;5116267;28;20169;-58
2022/03/02 07:33:45;;;;;;;23.38;16.95;;;6.00;99.90;;;;;;5116061;28;20196;-58
2022/03/02 07:36:11;;;;;;;19.85;15.63;;;5.70;99.90;;;;;;5116028;28;20275;-58
2022/03/02 07:38:39;;;;;;;20.98;17.10;;;5.70;99.90;;;;;;5116079;28;20176;-58
2022/03/02 07:41:07;;;;;;;24.35;17.17;;;5.70;99.90;;;;;;5115796;28;20253;-58
2022/03/02 07:43:36;;;;;;;22.60;16.80;;;5.70;99.90;;;;;;5116075;28;20254;-58
2022/03/02 07:46:04;;;;;;;20.42;16.08;;;5.80;99.90;;;;;;5116008;28;20186;-58
2022/03/02 07:48:30;;;;;;;22.83;17.60;;;5.90;99.90;;;;;;5114616;28;20169;-58
2022/03/02 07:50:57;;;;;;;22.63;18.70;;;6.10;99.90;;;;;;5114617;28;20180;-58
2022/03/02 07:53:26;;;;;;;19.35;16.05;;;6.10;99.90;;;;;;5115601;28;20445;-59
2022/03/02 07:55:54;;;;;;;23.40;18.23;;;6.20;99.90;;;;;;5115620;28;20180;-58
2022/03/02 07:58:21;;;;;;;20.65;16.30;;;6.40;99.90;;;;;;5115549;28;20543;-58
2022/03/02 08:00:48;;;;;;;22.25;18.35;;;6.50;99.90;;;;;;5114730;28;20173;-58
2022/03/02 08:03:15;;;;;;;21.25;17.70;;;6.50;99.90;;;;;;5115560;28;20677;-58
2022/03/02 08:05:43;;;;;;;26.55;19.52;;;6.60;99.90;;;;;;5115506;28;20242;-58
2022/03/02 08:08:10;;;;;;;21.98;17.80;;;6.70;99.90;;;;;;5114241;28;20575;-58
2022/03/02 08:10:36;;;;;;;24.30;17.65;;;6.70;99.90;;;;;;5115633;28;20177;-58
2022/03/02 08:13:02;;;;;;;22.70;17.17;;;6.70;99.90;;;;;;5115766;28;20268;-58
2022/03/02 08:15:29;;;;;;;22.67;17.73;;;6.90;99.90;;;;;;5115382;28;20185;-58
2022/03/02 08:17:55;;;;;;;19.63;16.42;;;7.00;99.90;;;;;;5115285;28;20207;-58
2022/03/02 08:20:21;;;;;;;24.10;17.33;;;7.00;99.90;;;;;;5115458;28;20219;-58
2022/03/02 08:22:51;;;;;;;25.50;16.90;;;6.90;99.90;;;;;;5114997;28;20209;-58
2022/03/02 08:25:21;;;;;;;21.90;17.25;;;6.90;99.90;;;;;;5115342;28;20622;-58
2022/03/02 08:27:49;;;;;;;21.65;16.77;;;6.90;99.90;;;;;;5115291;28;20210;-58
2022/03/02 08:30:16;;;;;;;21.42;16.58;;;6.90;99.90;;;;;;5114953;28;20534;-58
2022/03/02 08:32:44;;;;;;;21.90;17.13;;;6.90;99.90;;;;;;5114971;28;20192;-58
2022/03/02 08:35:11;;;;;;;22.88;17.38;;;7.00;99.90;;;;;;5114891;28;20173;-58
2022/03/02 08:37:37;;;;;;;20.05;16.60;;;7.00;99.90;;;;;;5115136;28;20253;-58
2022/03/02 08:40:04;;;;;;;23.23;17.27;;;7.00;99.90;;;;;;5114899;28;20281;-59
2022/03/02 08:42:31;;;;;;;20.95;17.02;;;7.00;99.90;;;;;;5114717;28;20201;-58
2022/03/02 08:44:57;;;;;;;22.08;17.17;;;7.10;99.90;;;;;;5114718;28;20191;-58
2022/03/02 08:47:23;;;;;;;22.08;16.90;;;7.10;99.90;;;;;;5114766;28;20227;-58
2022/03/02 08:49:50;;;;;;;21.98;17.38;;;7.10;99.90;;;;;;5114765;28;20547;-58
2022/03/02 08:52:20;;;;;;;21.63;16.73;;;7.10;99.90;;;;;;5114760;28;20177;-58
2022/03/02 08:54:47;;;;;;;23.23;17.88;;;7.20;99.90;;;;;;5114716;28;20198;-58
2022/03/02 08:57:14;;;;;;;21.73;16.95;;;7.30;99.90;;;;;;5114551;27;20182;-58
2022/03/02 08:59:41;;;;;;;21.83;18.00;;;7.20;99.90;;;;;;5114529;28;20553;-58
2022/03/02 09:02:08;;;;;;;22.33;17.83;;;7.30;99.90;;;;;;5114233;28;20215;-58
2022/03/02 09:04:37;;;;;;;20.35;16.88;;;7.40;99.90;;;;;;5096416;28;20617;-58
2022/03/02 09:07:04;;;;;;;23.00;18.00;;;7.50;99.90;;;;;;5114406;28;20697;-58
2022/03/02 09:09:30;;;;;;;20.33;16.60;;;7.80;99.90;;;;;;5114324;28;20331;-58
2022/03/02 09:11:56;;;;;;;20.27;16.40;;;7.90;99.90;;;;;;5114190;28;20169;-59
2022/03/02 09:14:23;;;;;;;23.45;17.08;;;8.00;99.90;;;;;;5114136;28;20191;-59
2022/03/02 09:16:49;;;;;;;22.30;18.38;;;8.10;99.90;;;;;;5114064;28;20181;-59
2022/03/02 09:19:16;;;;;;;21.23;17.17;;;8.10;99.90;;;;;;5114222;28;20193;-58
2022/03/02 09:21:45;;;;;;;20.48;17.10;;;8.10;99.90;;;;;;5114243;28;20240;-59
2022/03/02 09:24:12;;;;;;;25.88;18.27;;;8.00;99.90;;;;;;5114059;28;20288;-59
2022/03/02 09:26:39;;;;;;;22.40;17.80;;;8.10;99.90;;;;;;5114046;28;20201;-58
2022/03/02 09:29:06;;;;;;;21.20;17.58;;;8.20;99.90;;;;;;5113882;28;20199;-58
2022/03/02 09:31:34;;;;;;;21.80;16.55;;;8.30;99.90;;;;;;5113927;28;20245;-58
2022/03/02 09:34:05;;;;;;;21.02;16.48;;;8.10;99.90;;;;;;5114035;28;20169;-58
2022/03/02 09:36:36;;;;;;;23.15;17.67;;;8.20;99.90;;;;;;5113962;28;20176;-59
2022/03/02 09:39:05;;;;;;;27.35;21.05;;;8.10;99.90;;;;;;5113962;27;20172;-58
2022/03/02 09:42:15;;;;;;;23.27;16.73;;;8.00;99.90;;;;;;5113744;28;20628;-58
2022/03/02 09:44:43;;;;;;;21.55;17.35;;;8.10;99.90;;;;;;5050911;28;20183;-58
2022/03/02 09:47:19;;;;;;;21.20;17.00;;;8.40;99.90;;;;;;5051006;28;20203;-58
2022/03/02 09:49:56;;;;;;;21.67;17.45;;;8.50;99.90;;;;;;5088244;28;20563;-58
2022/03/02 09:52:23;;;;;;;19.25;15.95;;;8.60;99.90;;;;;;5113730;28;20202;-58
2022/03/02 09:54:55;;;;;;;20.80;16.85;;;8.50;99.90;;;;;;5113773;28;20169;-59
2022/03/02 09:57:22;;;;;;;20.83;16.40;;;8.60;99.90;;;;;;5113693;28;20170;-58
2022/03/02 09:59:53;;;;;;;20.42;16.98;;;8.50;99.90;;;;;;5113590;28;20173;-58
2022/03/02 10:02:30;;;;;;;20.90;16.35;;;8.50;99.90;;;;;;5113452;28;20637;-58
2022/03/02 10:05:03;;;;;;;18.58;15.50;;;8.50;99.90;;;;;;5113651;28;20499;-58
2022/03/02 10:07:30;;;;;;;21.23;15.63;;;8.80;99.90;;;;;;5113450;28;20601;-59
2022/03/02 10:10:17;;;;;;;20.55;16.15;;;8.80;99.90;;;;;;5113492;28;20237;-59
2022/03/02 10:12:43;;;;;;;18.88;16.48;;;8.80;99.90;;;;;;5113432;28;20699;-58
2022/03/02 10:15:15;;;;;;;20.70;16.13;;;8.90;99.90;;;;;;5113613;28;20165;-59
2022/03/02 10:17:45;;;;;;;20.90;16.25;;;9.00;99.90;;;;;;5113544;28;20176;-58
2022/03/02 10:20:14;;;;;;;20.33;16.00;;;9.10;99.90;;;;;;5113317;28;20192;-58
2022/03/02 10:22:40;;;;;;;19.60;15.30;;;9.10;99.90;;;;;;5113825;28;20684;-58
2022/03/02 10:25:11;;;;;;;20.65;16.08;;;9.20;99.90;;;;;;5117502;28;20299;-58
2022/03/02 10:28:01;;;;;;;23.10;15.93;;;9.20;99.90;;;;;;5117467;28;20180;-59
2022/03/02 10:30:41;;;;;;;19.58;16.38;;;9.30;99.90;;;;;;5117486;27;20198;-58
2022/03/02 10:33:24;;;;;;;18.50;15.85;;;9.40;99.90;;;;;;5117434;28;20176;-58
2022/03/02 10:36:01;;;;;;;19.92;15.55;;;9.50;99.90;;;;;;5117188;28;20608;-58
2022/03/02 10:38:51;;;;;;;19.73;15.88;;;9.50;99.90;;;;;;5117437;28;20173;-58
2022/03/02 10:41:20;;;;;;;17.20;15.32;;;9.50;99.90;;;;;;5105818;28;20651;-59
2022/03/02 10:43:55;;;;;;;20.65;15.70;;;9.50;99.90;;;;;;5117144;27;20599;-58
2022/03/02 10:46:23;;;;;;;18.40;15.85;;;9.40;99.90;;;;;;5117039;28;20168;-58
2022/03/02 10:49:26;;;;;;;19.30;15.68;;;9.70;99.90;;;;;;5117214;28;20215;-59
2022/03/02 10:51:54;;;;;;;18.60;15.55;;;9.70;99.90;;;;;;5054068;28;20244;-58
2022/03/02 10:54:23;;;;;;;18.50;15.65;;;9.90;99.90;;;;;;5106323;28;20220;-58
2022/03/02 10:56:53;;;;;;;18.75;15.77;;;9.90;99.50;;;;;;5116813;28;20200;-58
2022/03/02 10:59:24;;;;;;;17.15;15.27;;;10.10;99.90;;;;;;5117043;28;20252;-59
2022/03/02 11:01:52;;;;;;;19.00;15.43;;;10.30;99.90;;;;;;5117210;28;20254;-58
2022/03/02 11:04:20;;;;;;;20.40;15.90;;;10.40;99.40;;;;;;5116853;28;20242;-58
2022/03/02 11:06:45;;;;;;;19.63;15.93;;;10.20;99.90;;;;;;5116735;28;20173;-58
2022/03/02 11:09:11;;;;;;;21.05;15.85;;;10.10;99.50;;;;;;5116585;28;20637;-58
2022/03/02 11:11:37;;;;;;;17.45;15.10;;;10.20;98.80;;;;;;5116573;28;20567;-58
2022/03/02 11:14:04;;;;;;;18.75;15.13;;;10.30;98.20;;;;;;5116417;28;20650;-58
2022/03/02 11:16:30;;;;;;;17.73;14.30;;;10.20;98.30;;;;;;5116604;28;20208;-58
2022/03/02 11:18:56;;;;;;;19.98;14.65;;;10.00;99.20;;;;;;5116298;28;20189;-59
2022/03/02 11:21:29;;;;;;;17.77;14.73;;;10.30;97.40;;;;;;5116477;28;20265;-59
2022/03/02 11:23:58;;;;;;;18.15;13.70;;;10.40;96.20;;;;;;5116204;28;20266;-59
2022/03/02 11:26:32;;;;;;;15.75;13.43;;;10.40;96.50;;;;;;5116418;28;20634;-59
2022/03/02 11:29:17;;;;;;;17.48;14.32;;;10.40;96.60;;;;;;5116378;28;20173;-59
2022/03/02 11:31:44;;;;;;;17.15;14.23;;;10.60;96.60;;;;;;5116317;28;20161;-59
2022/03/02 11:34:11;;;;;;;15.35;13.63;;;10.50;95.50;;;;;;5115072;28;20208;-59
2022/03/02 11:36:38;;;;;;;15.02;13.35;;;10.60;96.40;;;;;;5115865;28;20177;-59
2022/03/02 11:39:05;;;;;;;16.17;12.63;;;10.50;93.80;;;;;;5116216;28;20181;-59
2022/03/02 11:41:39;;;;;;;15.73;12.73;;;10.40;92.00;;;;;;5116020;28;20689;-58
2022/03/02 11:44:26;;;;;;;14.63;12.50;;;10.70;95.30;;;;;;5116002;28;20204;-59
2022/03/02 11:46:52;;;;;;;15.25;12.13;;;10.80;84.50;;;;;;5115819;28;20169;-58
2022/03/02 11:49:18;;;;;;;17.98;12.63;;;10.90;82.90;;;;;;5115997;28;20577;-58
2022/03/02 11:51:44;;;;;;;16.58;12.52;;;11.00;80.30;;;;;;5115953;28;20165;-58
2022/03/02 11:54:10;;;;;;;14.70;11.65;;;10.90;82.50;;;;;;5115754;28;20211;-59
2022/03/02 11:56:36;;;;;;;15.43;11.90;;;11.10;83.80;;;;;;5115700;28;20204;-58
2022/03/02 11:59:07;;;;;;;16.67;12.05;;;11.10;76.90;;;;;;5097419;28;20177;-59
2022/03/02 12:01:48;;;;;;;16.30;12.55;;;11.20;71.90;;;;;;5115552;28;20166;-59
2022/03/02 12:04:15;;;;;;;17.83;12.52;;;11.20;71.70;;;;;;5115503;28;20208;-58
2022/03/02 12:06:51;;;;;;;16.88;12.48;;;11.30;73.20;;;;;;5115560;28;20173;-58
2022/03/02 12:09:25;;;;;;;16.02;12.70;;;11.50;78.30;;;;;;5115463;28;20173;-59
2022/03/02 12:11:51;;;;;;;16.80;11.90;;;11.50;70.90;;;;;;5115245;28;20173;-59
2022/03/02 12:14:17;;;;;;;15.05;12.63;;;11.50;67.40;;;;;;5115611;27;20557;-58
2022/03/02 12:16:50;;;;;;;20.98;17.23;;;11.50;70.10;;;;;;5115273;28;20174;-59
2022/03/02 12:19:27;;;;;;;22.38;17.77;;;11.60;70.70;;;;;;5115426;28;20222;-58
2022/03/02 12:22:01;;;;;;;13.40;11.52;;;11.70;65.70;;;;;;5115311;28;20258;-59
2022/03/02 12:24:32;;;;;;;15.18;10.38;;;11.60;60.40;;;;;;5113783;28;20235;-59
2022/03/02 12:27:06;;;;;;;15.73;11.98;;;11.70;60.40;;;;;;5115537;28;20508;-59
2022/03/02 12:29:37;;;;;;;16.58;12.23;;;11.60;61.20;;;;;;5115296;28;20563;-58
2022/03/02 12:32:14;;;;;;;15.07;11.63;;;11.40;59.70;;;;;;5115123;28;20256;-59
2022/03/02 12:34:43;;;;;;;15.32;11.75;;;11.60;64.50;;;;;;5114917;28;20176;-58
2022/03/02 12:37:09;;;;;;;13.70;11.30;;;11.70;65.40;;;;;;5115122;28;20204;-58
2022/03/02 12:39:36;;;;;;;14.82;11.05;;;11.80;64.90;;;;;;5114983;28;20222;-58